EJU21E EHAM-LEBB
Flight info
| Callsign | EJU21E |
|---|---|
| Flight time | N/A |
| Altitude | 34000 |
| Route | WOODY N872 MEDIL DCT KOVIN DCT DUCRA UM728 RESMI UN857 DISAK DCT ARKIP DCT ARNAV DCT LMG DCT UVELI DCT OSMOB DCT VAVIX DCT BTZ DCT URUNA P181 SSN L176 CEGAM |
| Aircraft | A20N/M-SDE2E3FGHIRWXY/LB1 |
Departure
| Time | 2026-04-27 08:46 |
|---|---|
| Airport | Amsterdam Airport Schiphol (EHAM) |
Arrival
| Time | N/A |
|---|---|
| Airport | Bilbao Airport (LEBB) |
| Time | Latitude | Longitude | Altitude | Speed | Heading |
|---|---|---|---|---|---|
| 2026-04-27 08:14 | 52.30947 | 4.75244 | -1 ft | 0 kts | 148° |
| 2026-04-27 08:15 | 52.30941 | 4.75250 | -1 ft | 0 kts | 148° |
| 2026-04-27 08:34 | 52.30945 | 4.75246 | -2 ft | 3 kts | 150° |
| 2026-04-27 08:34 | 52.30969 | 4.75230 | -2 ft | 4 kts | 153° |
| 2026-04-27 08:35 | 52.30986 | 4.75213 | -2 ft | 4 kts | 115° |
| 2026-04-27 08:35 | 52.30990 | 4.75198 | -2 ft | 0 kts | 117° |
| 2026-04-27 08:40 | 52.30990 | 4.75202 | -2 ft | 0 kts | 104° |
| 2026-04-27 08:40 | 52.30992 | 4.75206 | -2 ft | 1 kts | 76° |
| 2026-04-27 08:40 | 52.31011 | 4.75260 | -2 ft | 11 kts | 57° |
| 2026-04-27 08:40 | 52.31061 | 4.75389 | -2 ft | 16 kts | 58° |
| 2026-04-27 08:41 | 52.31145 | 4.75497 | -2 ft | 17 kts | 356° |
| 2026-04-27 08:41 | 52.31276 | 4.75485 | -2 ft | 20 kts | 357° |
| 2026-04-27 08:41 | 52.31425 | 4.75472 | -1 ft | 22 kts | 357° |
| 2026-04-27 08:41 | 52.31514 | 4.75409 | -1 ft | 9 kts | 258° |
| 2026-04-27 08:42 | 52.31508 | 4.75278 | -2 ft | 14 kts | 269° |
| 2026-04-27 08:42 | 52.31500 | 4.75101 | -1 ft | 17 kts | 264° |
| 2026-04-27 08:42 | 52.31492 | 4.74888 | -1 ft | 21 kts | 267° |
| 2026-04-27 08:42 | 52.31484 | 4.74636 | -1 ft | 24 kts | 267° |
| 2026-04-27 08:43 | 52.31475 | 4.74352 | -1 ft | 26 kts | 266° |
| 2026-04-27 08:43 | 52.31385 | 4.74138 | -1 ft | 26 kts | 184° |
| 2026-04-27 08:43 | 52.31197 | 4.74121 | -1 ft | 28 kts | 183° |
| 2026-04-27 08:43 | 52.30997 | 4.74102 | -1 ft | 30 kts | 183° |
| 2026-04-27 08:44 | 52.30787 | 4.74085 | -1 ft | 31 kts | 182° |
| 2026-04-27 08:44 | 52.30568 | 4.74064 | -1 ft | 32 kts | 183° |
| 2026-04-27 08:44 | 52.30363 | 4.74036 | -1 ft | 30 kts | 198° |
| 2026-04-27 08:44 | 52.30192 | 4.73854 | -2 ft | 28 kts | 247° |
| 2026-04-27 08:45 | 52.30227 | 4.73744 | -3 ft | 6 kts | 357° |
| 2026-04-27 08:45 | 52.30231 | 4.73743 | -3 ft | 0 kts | 357° |
| 2026-04-27 08:45 | 52.30321 | 4.73749 | -5 ft | 40 kts | 4° |
| 2026-04-27 08:46 | 52.30844 | 4.73797 | -1 ft | 107 kts | 2° |
| 2026-04-27 08:46 | 52.31765 | 4.73884 | 35 ft | 151 kts | 4° |
| 2026-04-27 08:46 | 52.32777 | 4.74098 | 652 ft | 146 kts | 17° |
| 2026-04-27 08:46 | 52.33739 | 4.74624 | 1260 ft | 145 kts | 24° |
| 2026-04-27 08:47 | 52.34680 | 4.75280 | 1824 ft | 150 kts | 25° |
| 2026-04-27 08:47 | 52.35715 | 4.75916 | 2241 ft | 169 kts | 22° |
| 2026-04-27 08:47 | 52.36728 | 4.77059 | 2744 ft | 189 kts | 49° |
| 2026-04-27 08:47 | 52.37327 | 4.79052 | 3207 ft | 214 kts | 80° |
| 2026-04-27 08:48 | 52.37171 | 4.81560 | 4019 ft | 228 kts | 106° |
| 2026-04-27 08:48 | 52.36338 | 4.83782 | 5089 ft | 236 kts | 137° |
| 2026-04-27 08:48 | 52.34871 | 4.85029 | 6127 ft | 241 kts | 170° |
| 2026-04-27 08:48 | 52.33185 | 4.85148 | 7121 ft | 249 kts | 182° |
| 2026-04-27 08:49 | 52.31375 | 4.85042 | 7723 ft | 272 kts | 184° |
| 2026-04-27 08:49 | 52.29441 | 4.84912 | 8560 ft | 282 kts | 183° |
| 2026-04-27 08:49 | 52.27464 | 4.84816 | 9619 ft | 286 kts | 183° |
| 2026-04-27 08:49 | 52.25446 | 4.84751 | 10572 ft | 293 kts | 182° |
| 2026-04-27 08:50 | 52.23342 | 4.84699 | 11178 ft | 313 kts | 182° |
| 2026-04-27 08:50 | 52.21549 | 4.84660 | 11515 ft | 331 kts | 182° |
| 2026-04-27 08:51 | 52.21128 | 4.84652 | 11595 ft | 335 kts | 182° |
| 2026-04-27 08:51 | 52.20172 | 4.84633 | 11851 ft | 340 kts | 182° |
| 2026-04-27 08:51 | 52.18648 | 4.84605 | 12422 ft | 343 kts | 182° |
| 2026-04-27 08:52 | 52.16248 | 4.84563 | 12993 ft | 347 kts | 182° |
| 2026-04-27 08:52 | 52.13766 | 4.84517 | 13244 ft | 349 kts | 182° |
| 2026-04-27 08:52 | 52.03515 | 4.84214 | 13998 ft | 353 kts | 188° |
| 2026-04-27 08:52 | 51.98853 | 4.81852 | 15692 ft | 355 kts | 209° |
| 2026-04-27 08:53 | 51.94364 | 4.78258 | 17229 ft | 364 kts | 210° |
| 2026-04-27 08:53 | 51.89724 | 4.74618 | 18709 ft | 375 kts | 210° |
| 2026-04-27 08:53 | 51.84998 | 4.70934 | 20165 ft | 379 kts | 210° |
| 2026-04-27 08:53 | 51.80207 | 4.67204 | 21587 ft | 384 kts | 210° |
| 2026-04-27 08:54 | 51.73111 | 4.61690 | 23609 ft | 393 kts | 209° |
| 2026-04-27 08:54 | 51.62376 | 4.53306 | 25963 ft | 404 kts | 210° |
| 2026-04-27 08:54 | 51.52105 | 4.45482 | 28068 ft | 413 kts | 210° |
| 2026-04-27 08:54 | 51.41590 | 4.37443 | 29847 ft | 422 kts | 210° |
| 2026-04-27 08:55 | 51.30995 | 4.29381 | 31337 ft | 432 kts | 210° |
| 2026-04-27 08:55 | 51.20124 | 4.21137 | 33134 ft | 430 kts | 210° |
| 2026-04-27 08:55 | 51.08962 | 4.14253 | 34291 ft | 429 kts | 204° |
| 2026-04-27 08:55 | 50.97687 | 4.08086 | 34293 ft | 429 kts | 204° |